Time;durP1;ratioP1;P1;durP2;ratioP2;P2;SDS_P1;SDS_P2;PMS_P1;PMS_P2;Temp;Humidity;BMP_temperature;BMP_pressure;BME280_temperature;BME280_humidity;BME280_pressure;Samples;Min_cycle;Max_cycle;Signal;HPM_P1;HPM_P2
2022/01/22 00:00:28;;;;;;;14.75;1.90;;;5.90;99.90;;;;;;4953022;29;20414;-78
2022/01/22 00:02:54;;;;;;;18.83;2.42;;;6.00;99.90;;;;;;4936808;29;20176;-78
2022/01/22 00:05:21;;;;;;;15.10;1.90;;;5.90;99.90;;;;;;4952419;29;20051;-78
2022/01/22 00:07:48;;;;;;;9.52;2.33;;;5.90;99.90;;;;;;4952563;29;20058;-78
2022/01/22 00:10:15;;;;;;;11.30;2.80;;;5.90;99.90;;;;;;4952619;29;20093;-78
2022/01/22 00:12:56;;;;;;;16.75;2.42;;;5.90;99.90;;;;;;4952750;29;20066;-78
2022/01/22 00:15:24;;;;;;;10.38;1.92;;;5.90;99.90;;;;;;4953588;28;20121;-78
2022/01/22 00:17:51;;;;;;;18.33;2.03;;;5.90;99.90;;;;;;4952402;29;20119;-78
2022/01/22 00:20:19;;;;;;;14.40;1.73;;;5.90;99.90;;;;;;4952152;29;20054;-78
2022/01/22 00:22:45;;;;;;;12.55;2.85;;;5.90;99.90;;;;;;4952244;29;20494;-78
2022/01/22 00:25:12;;;;;;;13.77;1.98;;;5.90;99.90;;;;;;4953194;28;20050;-78
2022/01/22 00:27:40;;;;;;;13.95;2.33;;;5.90;99.90;;;;;;4952138;29;20126;-78
2022/01/22 00:30:11;;;;;;;20.50;2.90;;;5.90;99.90;;;;;;4936195;29;20047;-77
2022/01/22 00:32:37;;;;;;;26.25;2.80;;;5.90;99.90;;;;;;4952198;29;20039;-78
2022/01/22 00:35:05;;;;;;;19.77;2.42;;;5.90;99.90;;;;;;4955627;28;20039;-78
2022/01/22 00:37:30;;;;;;;13.75;2.47;;;5.90;99.90;;;;;;4955648;29;20383;-78
2022/01/22 00:39:56;;;;;;;10.95;1.90;;;5.90;99.90;;;;;;4955847;29;20058;-79
2022/01/22 00:42:23;;;;;;;19.05;2.70;;;5.90;99.90;;;;;;4955872;29;20062;-78
2022/01/22 00:44:51;;;;;;;9.57;1.90;;;5.90;99.90;;;;;;4955556;29;20047;-78
2022/01/22 00:47:18;;;;;;;17.33;2.25;;;5.90;99.90;;;;;;4955319;29;20043;-78
2022/01/22 00:49:45;;;;;;;25.85;3.58;;;6.00;99.90;;;;;;4939446;29;20070;-78
2022/01/22 00:52:11;;;;;;;16.90;2.10;;;5.90;99.90;;;;;;4955641;29;20082;-78
2022/01/22 00:54:36;;;;;;;20.50;3.28;;;6.00;99.90;;;;;;4955437;29;20103;-78
2022/01/22 00:57:02;;;;;;;14.38;2.17;;;6.00;99.90;;;;;;4956444;28;20430;-78
2022/01/22 00:59:28;;;;;;;11.40;1.40;;;6.00;99.90;;;;;;4955092;29;20082;-78
2022/01/22 01:01:54;;;;;;;15.75;2.95;;;6.00;99.90;;;;;;4955508;29;20047;-78
2022/01/22 01:04:19;;;;;;;14.45;2.20;;;6.00;99.90;;;;;;4955513;29;20481;-78
2022/01/22 01:06:45;;;;;;;13.82;2.20;;;6.00;99.90;;;;;;4954942;29;20070;-78
2022/01/22 01:09:12;;;;;;;15.68;2.33;;;6.00;99.90;;;;;;4955013;29;20477;-78
2022/01/22 01:11:45;;;;;;;20.90;2.58;;;6.00;99.90;;;;;;4955395;29;20118;-79
2022/01/22 01:14:16;;;;;;;13.63;2.40;;;6.10;99.90;;;;;;4955027;29;20447;-78
2022/01/22 01:17:07;;;;;;;18.20;2.42;;;6.00;99.90;;;;;;4954824;29;20470;-78
2022/01/22 01:33:18;;;;;;;11.25;1.90;;;6.10;99.90;;;;;;4954706;29;20063;-79
2022/01/22 01:35:44;;;;;;;13.32;1.55;;;6.10;99.90;;;;;;4954462;29;20051;-79
2022/01/22 01:38:10;;;;;;;14.55;2.70;;;6.10;99.90;;;;;;4954627;29;20395;-78
2022/01/22 01:40:42;;;;;;;10.75;2.50;;;6.20;99.90;;;;;;4954527;29;20407;-78
2022/01/22 01:43:20;;;;;;;;;;;6.20;99.90;;;;;;4954972;29;20503;-79
2022/01/22 01:45:45;;;;;;;16.15;2.53;;;6.20;99.90;;;;;;4953753;28;19950;-78
2022/01/22 01:48:17;;;;;;;8.13;1.70;;;6.20;99.90;;;;;;4954345;29;20133;-78
2022/01/22 01:50:43;;;;;;;14.10;2.00;;;6.20;99.90;;;;;;4954360;29;20054;-78
2022/01/22 01:53:20;;;;;;;12.57;2.08;;;6.20;99.90;;;;;;4954352;29;20074;-78
2022/01/22 01:56:00;;;;;;;15.20;1.60;;;6.30;99.90;;;;;;4954149;29;20047;-78
2022/01/22 01:58:28;;;;;;;12.15;1.60;;;6.30;99.90;;;;;;4954359;29;20102;-79
2022/01/22 02:00:55;;;;;;;12.77;2.20;;;6.20;99.90;;;;;;4954379;29;20062;-79
2022/01/22 02:03:21;;;;;;;19.15;2.95;;;6.20;99.90;;;;;;4954420;29;20514;-79
2022/01/22 02:05:47;;;;;;;9.02;1.77;;;6.30;99.90;;;;;;4953858;29;20118;-79
2022/01/22 02:08:13;;;;;;;13.98;2.20;;;6.30;99.90;;;;;;4953931;29;20122;-79
2022/01/22 02:10:45;;;;;;;16.30;2.22;;;6.30;99.90;;;;;;4953921;29;20074;-78
2022/01/22 02:24:11;;;;;;;8.23;1.83;;;6.30;99.90;;;;;;4953807;29;20089;-78
2022/01/22 02:26:37;;;;;;;12.07;1.80;;;6.30;99.90;;;;;;4953491;29;20502;-78
2022/01/22 02:29:04;;;;;;;12.27;1.60;;;6.30;99.90;;;;;;4953775;29;20180;-78
2022/01/22 02:31:39;;;;;;;10.15;1.55;;;6.30;99.90;;;;;;4953632;29;20050;-78
2022/01/22 02:34:14;;;;;;;14.77;1.98;;;6.30;99.90;;;;;;4953889;29;20058;-78
2022/01/22 02:36:57;;;;;;;4.80;1.30;;;6.30;99.90;;;;;;4953328;29;20122;-78
2022/01/22 02:39:35;;;;;;;10.40;1.63;;;6.40;99.90;;;;;;4953620;29;20077;-78
2022/01/22 02:42:01;;;;;;;10.65;1.30;;;6.30;99.90;;;;;;4953685;29;20074;-78
2022/01/22 02:44:44;;;;;;;6.82;1.50;;;6.30;99.90;;;;;;4953341;29;20043;-78
2022/01/22 02:47:09;;;;;;;;;;;6.40;99.90;;;;;;4953628;29;20054;-77
2022/01/22 02:49:35;;;;;;;12.50;1.42;;;6.40;99.90;;;;;;4953306;29;19925;-80
2022/01/22 02:52:09;;;;;;;6.60;1.40;;;6.40;99.90;;;;;;4954858;29;20286;-81
2022/01/22 02:54:36;;;;;;;4.38;2.03;;;6.40;99.90;;;;;;4954722;29;20050;-81
2022/01/22 02:57:02;;;;;;;7.07;1.05;;;6.40;99.90;;;;;;4953706;28;20105;-82
2022/01/22 02:59:27;;;;;;;4.72;1.05;;;6.40;99.90;;;;;;4938353;29;20455;-81
2022/01/22 03:01:53;;;;;;;12.45;2.55;;;6.40;99.90;;;;;;4954559;29;20043;-81
2022/01/22 03:04:19;;;;;;;8.13;1.88;;;6.40;99.90;;;;;;4954485;29;20039;-81
2022/01/22 03:06:47;;;;;;;5.95;1.27;;;6.50;99.90;;;;;;4954410;29;20062;-80
2022/01/22 03:09:15;;;;;;;7.13;1.15;;;6.50;99.90;;;;;;4953897;29;20050;-81
2022/01/22 03:17:37;;;;;;;4.28;1.20;;;6.40;99.90;;;;;;4953946;29;20074;-81
2022/01/22 03:23:06;;;;;;;4.57;1.63;;;6.40;99.90;;;;;;4954237;29;20059;-81
2022/01/22 03:28:03;;;;;;;9.85;1.50;;;6.40;99.90;;;;;;4954136;29;20058;-81
2022/01/22 03:30:28;;;;;;;10.57;1.50;;;6.30;99.90;;;;;;4953929;29;20047;-81
2022/01/22 03:32:56;;;;;;;6.15;1.25;;;6.40;99.90;;;;;;4954051;29;20046;-80
2022/01/22 03:37:52;;;;;;;6.28;1.08;;;6.40;99.90;;;;;;4954182;29;20110;-80
2022/01/22 03:40:21;;;;;;;10.27;1.50;;;6.30;99.90;;;;;;4953874;29;20058;-81
2022/01/22 03:42:47;;;;;;;3.70;1.00;;;6.30;99.90;;;;;;4953836;29;20047;-80
2022/01/22 03:45:14;;;;;;;10.38;1.60;;;6.30;99.90;;;;;;4953765;29;20487;-81
2022/01/22 03:47:41;;;;;;;13.88;1.95;;;6.30;99.90;;;;;;4954064;29;20054;-80
2022/01/22 03:50:08;;;;;;;3.17;1.00;;;6.30;99.90;;;;;;4953745;29;20498;-81
2022/01/22 03:52:34;;;;;;;4.93;1.42;;;6.30;99.90;;;;;;4953792;29;20098;-81
2022/01/22 03:55:00;;;;;;;3.47;1.85;;;6.40;99.90;;;;;;4938162;29;20431;-81
2022/01/22 03:57:26;;;;;;;2.80;0.68;;;6.30;99.90;;;;;;4953868;29;20055;-81
2022/01/22 03:59:54;;;;;;;7.28;1.00;;;6.30;99.90;;;;;;4937887;29;20035;-82
2022/01/22 04:05:05;;;;;;;2.83;0.82;;;6.30;99.90;;;;;;4953567;29;20142;-81
2022/01/22 04:10:17;;;;;;;2.33;0.60;;;6.30;99.90;;;;;;4957552;28;20043;-81
2022/01/22 04:12:51;;;;;;;4.93;1.25;;;6.20;99.90;;;;;;4957863;29;20054;-81
2022/01/22 04:15:22;;;;;;;4.43;0.68;;;6.30;99.90;;;;;;4957266;29;20066;-81
2022/01/22 04:26:04;;;;;;;1.92;0.45;;;6.30;99.90;;;;;;4957105;29;20109;-82
2022/01/22 04:28:30;;;;;;;1.80;0.68;;;6.30;99.90;;;;;;4956949;29;20043;-82
2022/01/22 04:30:55;;;;;;;3.70;0.57;;;6.30;99.90;;;;;;4957503;29;20082;-81
2022/01/22 04:33:21;;;;;;;2.80;0.77;;;6.30;99.90;;;;;;4957136;29;20101;-81
2022/01/22 04:35:46;;;;;;;2.78;0.60;;;6.20;99.90;;;;;;4958264;29;20410;-81
2022/01/22 04:38:12;;;;;;;3.28;0.75;;;6.30;99.90;;;;;;4957021;29;20043;-81
2022/01/22 04:40:37;;;;;;;5.50;0.90;;;6.20;99.90;;;;;;4957443;29;20050;-81
2022/01/22 04:43:04;;;;;;;3.55;1.88;;;6.20;99.90;;;;;;4941189;29;20450;-81
2022/01/22 04:45:49;;;;;;;3.38;0.80;;;6.20;99.90;;;;;;4957192;29;20090;-81
2022/01/22 04:55:53;;;;;;;2.78;0.70;;;6.20;99.90;;;;;;4955781;29;20043;-82
2022/01/22 04:58:18;;;;;;;1.33;0.77;;;6.20;99.90;;;;;;4939696;29;20098;-82
2022/01/22 05:00:45;;;;;;;2.42;1.00;;;6.30;99.90;;;;;;4939718;29;20051;-82
2022/01/22 05:03:11;;;;;;;4.57;0.70;;;6.20;99.90;;;;;;4955878;29;20051;-82
2022/01/22 05:05:38;;;;;;;4.72;1.20;;;6.20;99.90;;;;;;4955427;29;20055;-82
2022/01/22 05:08:03;;;;;;;2.67;0.90;;;6.10;99.90;;;;;;4955767;29;20065;-81
2022/01/22 05:10:29;;;;;;;2.28;1.10;;;6.20;99.90;;;;;;4956475;29;20135;-82
2022/01/22 05:12:55;;;;;;;5.93;1.13;;;6.20;99.90;;;;;;4956485;29;20098;-82
2022/01/22 05:15:21;;;;;;;3.13;1.20;;;6.20;99.90;;;;;;4956339;29;20050;-82
2022/01/22 05:17:48;;;;;;;3.58;0.88;;;6.20;99.90;;;;;;4940640;29;20134;-82
2022/01/22 05:20:24;;;;;;;4.45;1.23;;;6.20;99.90;;;;;;4955626;28;20055;-82
2022/01/22 05:25:22;;;;;;;2.28;0.82;;;6.20;99.90;;;;;;4956143;29;20580;-82
2022/01/22 05:28:08;;;;;;;3.13;1.02;;;6.20;99.90;;;;;;4956180;29;20051;-82
2022/01/22 05:38:34;;;;;;;5.05;1.02;;;6.20;99.90;;;;;;4956049;29;20082;-81
2022/01/22 05:41:00;;;;;;;3.17;1.05;;;6.20;99.90;;;;;;4955838;29;20046;-82
2022/01/22 05:43:26;;;;;;;6.82;1.70;;;6.20;99.90;;;;;;4955646;29;20047;-82
2022/01/22 05:45:52;;;;;;;4.43;1.30;;;6.20;99.90;;;;;;4955856;29;20055;-82
2022/01/22 05:48:17;;;;;;;4.43;1.10;;;6.10;99.90;;;;;;4955756;29;20047;-82
2022/01/22 05:50:50;;;;;;;3.60;1.50;;;6.20;99.90;;;;;;4955346;29;20553;-81
2022/01/22 05:53:33;;;;;;;;;;;6.20;99.90;;;;;;4956179;29;20058;-81
2022/01/22 06:01:20;;;;;;;2.67;1.67;;;6.20;99.90;;;;;;4955504;29;20075;-82
2022/01/22 06:03:46;;;;;;;6.38;1.65;;;6.20;99.90;;;;;;4939436;29;20043;-81
2022/01/22 06:06:13;;;;;;;4.75;1.65;;;6.20;99.90;;;;;;4954920;29;20506;-82
2022/01/22 06:08:45;;;;;;;3.78;1.98;;;6.20;99.90;;;;;;4955749;29;20051;-81
2022/01/22 06:11:11;;;;;;;8.80;2.20;;;6.20;99.90;;;;;;4955338;29;20074;-82
2022/01/22 06:13:45;;;;;;;12.02;1.70;;;6.20;99.90;;;;;;4955168;29;20039;-81
2022/01/22 06:16:12;;;;;;;8.20;2.97;;;6.20;99.90;;;;;;4954992;29;20047;-82
2022/01/22 06:18:38;;;;;;;5.55;2.10;;;6.20;99.90;;;;;;4955248;29;20498;-82
2022/01/22 06:21:05;;;;;;;9.52;3.03;;;6.20;99.90;;;;;;4955394;29;20182;-81
2022/01/22 06:23:31;;;;;;;8.00;2.05;;;6.20;99.90;;;;;;4955005;29;20086;-82
2022/01/22 06:26:00;;;;;;;9.93;1.83;;;6.20;99.90;;;;;;4954744;29;20055;-81
2022/01/22 06:28:27;;;;;;;10.68;2.08;;;6.20;99.90;;;;;;4954962;29;20043;-82
2022/01/22 06:30:52;;;;;;;6.50;2.03;;;6.20;99.90;;;;;;4954608;29;20043;-81
2022/01/22 06:33:18;;;;;;;9.45;2.22;;;6.20;99.90;;;;;;4954917;28;20038;-82
2022/01/22 06:35:44;;;;;;;10.60;2.08;;;6.20;99.90;;;;;;4938897;29;20043;-81
2022/01/22 06:38:10;;;;;;;8.80;2.20;;;6.20;99.90;;;;;;4954946;29;20047;-79
2022/01/22 06:43:01;;;;;;;6.10;2.13;;;6.20;99.90;;;;;;4954552;29;20055;-79
2022/01/22 06:45:27;;;;;;;5.80;1.80;;;6.20;99.90;;;;;;4954169;29;20067;-79
2022/01/22 06:47:52;;;;;;;8.75;1.55;;;6.20;99.90;;;;;;4954127;29;20496;-79
2022/01/22 06:50:19;;;;;;;4.75;1.35;;;6.20;99.90;;;;;;4953822;29;20054;-79
2022/01/22 06:52:46;;;;;;;5.18;1.45;;;6.20;99.90;;;;;;4954211;29;20101;-79
2022/01/22 06:55:15;;;;;;;9.40;1.33;;;6.20;99.90;;;;;;4954075;29;20522;-79
2022/01/22 06:57:40;;;;;;;3.92;1.33;;;6.20;99.90;;;;;;4953848;29;20078;-79
2022/01/22 07:00:07;;;;;;;5.32;1.20;;;6.20;99.90;;;;;;4953959;29;20086;-79
2022/01/22 07:02:32;;;;;;;2.90;0.90;;;6.20;99.90;;;;;;4954349;29;20055;-78
2022/01/22 07:04:58;;;;;;;3.15;1.00;;;6.20;99.90;;;;;;4954131;29;20051;-79
2022/01/22 07:07:23;;;;;;;4.35;2.53;;;6.20;99.90;;;;;;4953553;29;20058;-78
2022/01/22 07:09:49;;;;;;;5.88;1.10;;;6.20;99.90;;;;;;4954007;29;20051;-79
2022/01/22 07:12:15;;;;;;;7.57;1.15;;;6.20;99.90;;;;;;4953987;29;20039;-79
2022/01/22 07:14:41;;;;;;;4.03;1.00;;;6.10;99.90;;;;;;4953717;29;20046;-79
2022/01/22 07:17:07;;;;;;;3.20;0.85;;;6.20;99.90;;;;;;4953646;29;20043;-79
2022/01/22 07:19:39;;;;;;;4.05;0.90;;;6.20;99.90;;;;;;4953778;29;20547;-79
2022/01/22 07:22:18;;;;;;;3.55;1.38;;;6.20;99.90;;;;;;4954035;29;20054;-79
2022/01/22 07:24:44;;;;;;;1.85;0.80;;;6.20;99.90;;;;;;4954636;28;20507;-79
2022/01/22 07:27:10;;;;;;;4.57;1.02;;;6.20;99.90;;;;;;4953219;29;20043;-78
2022/01/22 07:29:35;;;;;;;3.97;0.80;;;6.10;99.90;;;;;;4953613;29;20522;-79
2022/01/22 07:32:03;;;;;;;4.78;1.05;;;6.10;99.90;;;;;;4953939;29;20114;-79
2022/01/22 07:34:28;;;;;;;5.18;1.17;;;6.20;99.90;;;;;;4954855;28;20047;-79
2022/01/22 07:36:54;;;;;;;3.95;0.98;;;6.10;99.90;;;;;;4953919;29;20042;-79
2022/01/22 07:39:20;;;;;;;2.13;1.05;;;6.10;99.90;;;;;;4953657;29;20043;-79
2022/01/22 07:41:46;;;;;;;3.38;0.80;;;6.10;99.90;;;;;;4953832;29;20129;-79
2022/01/22 07:44:12;;;;;;;3.85;0.60;;;6.10;99.90;;;;;;4953397;29;20109;-79
2022/01/22 07:46:37;;;;;;;1.40;0.93;;;6.10;99.90;;;;;;4953762;29;20534;-79
2022/01/22 07:49:05;;;;;;;2.33;1.33;;;6.10;99.90;;;;;;4954647;28;20043;-82
2022/01/22 07:51:31;;;;;;;4.57;0.82;;;6.10;99.90;;;;;;4953312;29;20158;-82
2022/01/22 07:53:56;;;;;;;3.42;0.80;;;6.10;99.90;;;;;;4953732;29;20035;-82
2022/01/22 07:56:22;;;;;;;3.78;1.40;;;6.10;99.90;;;;;;4954000;29;20079;-82
2022/01/22 07:58:47;;;;;;;5.88;1.08;;;6.00;99.90;;;;;;4954370;29;20085;-81
2022/01/22 08:01:13;;;;;;;3.80;1.30;;;6.10;99.90;;;;;;4955151;29;20397;-81
2022/01/22 08:03:39;;;;;;;5.10;1.13;;;6.10;99.90;;;;;;4954396;29;20122;-83
2022/01/22 08:06:04;;;;;;;3.80;1.17;;;6.10;99.90;;;;;;4956334;29;20409;-83
2022/01/22 08:08:29;;;;;;;3.85;0.82;;;6.10;99.90;;;;;;4955933;29;20462;-83
2022/01/22 08:10:56;;;;;;;2.15;0.77;;;6.00;99.90;;;;;;4955737;29;20043;-83
2022/01/22 08:13:22;;;;;;;3.80;0.80;;;6.10;99.90;;;;;;4952889;29;20107;-79
2022/01/22 08:15:47;;;;;;;2.75;0.73;;;6.10;99.90;;;;;;4952376;29;20448;-78
2022/01/22 08:18:13;;;;;;;6.68;0.80;;;6.10;99.90;;;;;;4952922;29;20048;-83
2022/01/22 08:20:38;;;;;;;5.53;1.40;;;6.10;99.90;;;;;;4955322;29;20094;-83
2022/01/22 08:23:04;;;;;;;4.85;0.65;;;6.10;99.90;;;;;;4955408;29;20059;-78
2022/01/22 08:25:31;;;;;;;4.38;1.05;;;6.10;99.90;;;;;;4952154;29;20457;-78
2022/01/22 08:28:52;;;;;;;2.83;0.75;;;6.10;99.90;;;;;;4952151;29;20170;-79
2022/01/22 08:30:45;;;;;;;4.43;1.13;;;6.10;99.90;;;;;;4952034;29;20043;-78
2022/01/22 08:35:55;;;;;;;3.53;0.80;;;6.10;99.90;;;;;;4951976;29;20102;-78
2022/01/22 08:38:23;;;;;;;3.65;0.73;;;6.10;99.90;;;;;;4952494;29;20047;-83
2022/01/22 08:40:50;;;;;;;3.05;0.70;;;6.10;99.90;;;;;;4942864;29;20102;-83
2022/01/22 08:43:15;;;;;;;5.28;0.90;;;6.10;99.90;;;;;;4956304;29;20047;-83
2022/01/22 08:45:41;;;;;;;4.80;0.93;;;6.00;99.90;;;;;;4955763;29;20045;-83
2022/01/22 08:48:06;;;;;;;3.13;0.60;;;6.10;99.90;;;;;;4958279;29;20474;-83
2022/01/22 08:50:34;;;;;;;4.03;1.58;;;6.10;99.90;;;;;;4941196;29;20055;-83
2022/01/22 08:53:00;;;;;;;3.35;1.30;;;6.10;99.90;;;;;;4957689;29;20046;-83
2022/01/22 08:55:25;;;;;;;4.35;1.17;;;6.10;99.90;;;;;;4956463;28;20487;-83
2022/01/22 08:57:51;;;;;;;9.25;1.60;;;6.10;99.90;;;;;;4958428;29;20182;-83
2022/01/22 09:00:20;;;;;;;5.22;1.15;;;6.10;99.90;;;;;;4944061;29;20054;-83
2022/01/22 09:02:47;;;;;;;6.03;2.00;;;6.20;99.90;;;;;;4944044;29;20047;-83
2022/01/22 09:05:16;;;;;;;5.32;1.70;;;6.20;99.90;;;;;;4958014;29;20051;-83
2022/01/22 09:07:43;;;;;;;3.88;1.20;;;6.20;99.90;;;;;;4959242;29;20079;-82
2022/01/22 09:10:09;;;;;;;3.00;0.75;;;6.20;99.90;;;;;;4940939;29;20039;-82
2022/01/22 09:12:34;;;;;;;5.80;1.20;;;6.20;99.90;;;;;;4944821;29;20053;-82
2022/01/22 09:15:00;;;;;;;4.82;1.35;;;6.20;99.90;;;;;;4962487;28;20051;-82
2022/01/22 09:17:25;;;;;;;9.23;1.75;;;6.10;99.90;;;;;;4963160;29;20035;-83
2022/01/22 09:19:58;;;;;;;5.68;1.70;;;6.20;99.90;;;;;;4960143;29;20239;-82
2022/01/22 09:22:24;;;;;;;;;;;6.30;99.90;;;;;;4944679;29;20031;-82
2022/01/22 09:24:50;;;;;;;6.00;1.17;;;6.30;99.90;;;;;;4943993;29;20293;-82
2022/01/22 09:27:16;;;;;;;4.90;1.45;;;6.30;99.90;;;;;;4963697;28;20090;-82
2022/01/22 09:29:44;;;;;;;6.47;1.25;;;6.30;99.90;;;;;;4959406;29;20043;-82
2022/01/22 09:32:09;;;;;;;4.55;1.30;;;6.30;99.90;;;;;;4959150;29;20425;-82
2022/01/22 09:34:35;;;;;;;6.22;1.52;;;6.40;99.90;;;;;;4962182;29;20035;-82
2022/01/22 09:37:00;;;;;;;6.57;1.67;;;6.40;99.90;;;;;;4946654;29;20043;-82
2022/01/22 09:39:26;;;;;;;3.85;1.42;;;6.40;99.90;;;;;;4961613;29;20122;-82
2022/01/22 09:41:52;;;;;;;5.10;1.33;;;6.40;99.90;;;;;;4962876;29;20106;-82
2022/01/22 09:44:17;;;;;;;5.55;1.13;;;6.40;99.90;;;;;;4945071;29;20078;-82
2022/01/22 09:46:46;;;;;;;9.15;1.45;;;6.40;99.90;;;;;;4961250;29;20517;-79
2022/01/22 09:49:12;;;;;;;6.22;1.42;;;6.30;99.90;;;;;;4938376;29;20043;-78
2022/01/22 09:51:38;;;;;;;9.15;1.95;;;6.40;99.90;;;;;;4938899;29;20039;-78
2022/01/22 09:54:06;;;;;;;6.65;1.83;;;6.40;99.90;;;;;;4938640;29;20039;-80
2022/01/22 09:56:32;;;;;;;5.15;1.25;;;6.40;99.90;;;;;;4938985;29;20406;-82
2022/01/22 09:58:59;;;;;;;7.82;1.90;;;6.40;99.90;;;;;;4954289;29;20043;-81
2022/01/22 10:01:28;;;;;;;7.10;2.80;;;6.50;99.90;;;;;;4938512;29;20036;-79
2022/01/22 10:03:56;;;;;;;9.23;2.65;;;6.50;99.90;;;;;;4954362;29;20549;-79
2022/01/22 10:06:26;;;;;;;5.60;1.45;;;6.50;99.90;;;;;;4955017;28;20725;-79
2022/01/22 10:08:56;;;;;;;5.18;1.73;;;6.50;99.90;;;;;;4954586;29;20039;-79
2022/01/22 10:11:26;;;;;;;4.18;2.00;;;6.50;99.90;;;;;;4954158;29;20039;-79
2022/01/22 10:13:56;;;;;;;8.18;2.30;;;6.50;99.90;;;;;;4938254;29;20130;-79
2022/01/22 10:16:23;;;;;;;9.57;3.03;;;6.50;99.90;;;;;;4953968;29;20094;-79
2022/01/22 10:19:09;;;;;;;11.48;1.92;;;6.50;99.90;;;;;;4954052;29;20047;-80
2022/01/22 10:21:35;;;;;;;11.63;1.98;;;6.50;99.90;;;;;;4954358;29;20047;-79
2022/01/22 10:24:46;;;;;;;10.88;2.47;;;6.50;99.90;;;;;;4938072;29;20043;-79
2022/01/22 10:27:32;;;;;;;8.50;2.47;;;6.50;99.90;;;;;;4955295;28;20047;-78
2022/01/22 10:30:12;;;;;;;6.82;1.48;;;6.60;99.90;;;;;;4953919;29;20047;-80
2022/01/22 10:32:50;;;;;;;8.20;1.80;;;6.60;99.90;;;;;;4954619;29;20047;-80
2022/01/22 10:35:24;;;;;;;9.63;1.85;;;6.60;99.90;;;;;;4953559;29;20039;-80
2022/01/22 10:37:58;;;;;;;12.32;2.58;;;6.60;99.90;;;;;;4954033;29;20066;-79
2022/01/22 10:40:29;;;;;;;10.95;2.22;;;6.70;99.90;;;;;;4953714;29;20043;-79
2022/01/22 10:43:20;;;;;;;9.43;1.70;;;6.70;99.90;;;;;;4954075;29;20057;-79
2022/01/22 10:46:31;;;;;;;10.27;2.40;;;6.70;99.90;;;;;;4954075;29;20047;-81
2022/01/22 10:48:58;;;;;;;11.25;2.47;;;6.80;99.90;;;;;;4937680;29;20043;-79
2022/01/22 10:51:26;;;;;;;7.47;2.38;;;6.80;99.90;;;;;;4953538;29;20045;-80
2022/01/22 10:53:59;;;;;;;7.03;1.77;;;6.80;99.90;;;;;;4953834;29;20039;-81
2022/01/22 10:56:27;;;;;;;8.35;2.25;;;6.80;99.90;;;;;;4953387;29;20039;-79
2022/01/22 10:58:59;;;;;;;14.63;2.50;;;6.80;99.90;;;;;;4953218;29;20085;-79
2022/01/22 11:01:46;;;;;;;5.90;2.00;;;6.80;99.90;;;;;;4953454;29;20130;-79
2022/01/22 11:04:16;;;;;;;8.18;1.67;;;6.80;99.90;;;;;;4946310;29;20075;-82
2022/01/22 11:06:59;;;;;;;11.30;2.63;;;6.80;99.90;;;;;;4953493;29;20051;-80
2022/01/22 11:09:29;;;;;;;9.77;2.00;;;6.80;99.90;;;;;;4953083;29;20075;-79
2022/01/22 11:11:55;;;;;;;8.93;2.15;;;6.80;99.90;;;;;;4953173;29;20043;-80
2022/01/22 11:14:20;;;;;;;4.47;1.80;;;6.80;99.90;;;;;;4953395;29;20031;-79
2022/01/22 11:16:48;;;;;;;9.20;3.03;;;6.80;99.90;;;;;;4953183;29;20390;-81
2022/01/22 11:19:20;;;;;;;12.43;2.50;;;6.90;99.90;;;;;;4952160;28;20059;-79
2022/01/22 11:21:49;;;;;;;12.68;2.47;;;6.90;99.90;;;;;;4953084;29;20047;-77
2022/01/22 11:24:18;;;;;;;11.25;2.22;;;6.90;99.90;;;;;;4954062;28;20078;-77
2022/01/22 11:26:48;;;;;;;13.13;2.20;;;6.90;99.90;;;;;;4936862;29;20049;-77
2022/01/22 11:29:15;;;;;;;11.43;2.40;;;6.90;99.90;;;;;;4936825;29;20106;-77
2022/01/22 11:31:45;;;;;;;15.55;2.63;;;6.90;99.90;;;;;;4936765;29;20043;-77
2022/01/22 11:34:12;;;;;;;18.05;4.40;;;6.90;99.90;;;;;;4952733;29;20126;-78
2022/01/22 11:36:45;;;;;;;10.10;2.72;;;6.80;99.90;;;;;;4952808;29;20074;-77
2022/01/22 11:39:19;;;;;;;7.90;2.67;;;6.80;99.90;;;;;;4954020;28;20557;-77
2022/01/22 11:41:57;;;;;;;7.95;3.00;;;6.80;99.90;;;;;;4952742;29;20070;-78
2022/01/22 11:44:24;;;;;;;11.27;3.40;;;6.80;99.90;;;;;;4936658;29;20460;-77
2022/01/22 11:46:58;;;;;;;14.18;3.65;;;6.90;99.90;;;;;;4952529;29;20437;-77
2022/01/22 11:49:31;;;;;;;9.68;3.38;;;6.80;99.90;;;;;;4936500;29;20413;-77
2022/01/22 11:52:12;;;;;;;14.95;3.45;;;6.90;99.90;;;;;;4952630;29;20035;-78
2022/01/22 11:54:59;;;;;;;8.90;3.38;;;6.80;99.90;;;;;;4952826;29;20548;-78
2022/01/22 11:57:27;;;;;;;12.82;3.75;;;6.90;99.90;;;;;;4952475;29;20050;-80
2022/01/22 12:00:15;;;;;;;17.70;3.70;;;6.80;99.90;;;;;;4937556;29;20490;-80
2022/01/22 12:02:40;;;;;;;12.85;3.38;;;6.90;99.90;;;;;;4937800;29;20039;-80
2022/01/22 12:05:07;;;;;;;15.65;5.20;;;6.90;99.90;;;;;;4937433;29;20036;-80
2022/01/22 12:07:35;;;;;;;10.65;3.67;;;6.90;99.90;;;;;;4937363;29;20597;-80
2022/01/22 12:10:20;;;;;;;13.52;5.95;;;7.00;99.90;;;;;;4937799;29;20039;-79
2022/01/22 12:15:40;;;;;;;14.18;4.28;;;7.00;99.90;;;;;;4952816;29;20044;-80
2022/01/22 12:18:11;;;;;;;12.52;4.72;;;7.00;99.90;;;;;;4949700;29;20058;-80
2022/01/22 12:23:29;;;;;;;11.20;2.78;;;7.00;99.90;;;;;;4953803;29;20059;-82
2022/01/22 12:25:55;;;;;;;11.65;4.05;;;7.00;99.90;;;;;;4952426;29;20051;-79
2022/01/22 12:28:39;;;;;;;9.90;2.78;;;6.90;99.90;;;;;;4953769;29;20048;-79
2022/01/22 12:31:10;;;;;;;12.15;2.63;;;7.00;99.90;;;;;;4956939;28;20455;-80
2022/01/22 12:33:39;;;;;;;7.80;3.00;;;7.00;99.90;;;;;;4957740;28;20047;-79
2022/01/22 12:36:12;;;;;;;10.10;3.00;;;7.00;99.90;;;;;;4956112;29;20050;-81
2022/01/22 12:38:47;;;;;;;13.93;2.88;;;6.90;99.90;;;;;;4941741;29;20062;-81
2022/01/22 12:44:07;;;;;;;7.00;2.90;;;6.90;99.90;;;;;;4959863;28;20406;-81
2022/01/22 12:46:36;;;;;;;12.23;2.97;;;6.90;99.90;;;;;;4957263;29;20051;-81
2022/01/22 12:49:04;;;;;;;10.77;2.90;;;6.90;99.90;;;;;;4941432;29;20047;-80
2022/01/22 12:51:30;;;;;;;11.30;3.50;;;6.90;99.90;;;;;;4958765;29;20035;-81
2022/01/22 12:53:56;;;;;;;14.43;2.90;;;6.90;99.90;;;;;;4957322;29;20035;-81
2022/01/22 12:59:04;;;;;;;6.20;3.05;;;6.90;99.90;;;;;;4958589;28;20138;-80
2022/01/22 13:01:32;;;;;;;8.90;2.53;;;6.90;99.90;;;;;;4958247;29;20063;-80
2022/01/22 13:04:01;;;;;;;7.93;2.42;;;7.00;99.90;;;;;;4957651;29;20373;-80
2022/01/22 13:06:40;;;;;;;7.18;2.30;;;6.90;99.90;;;;;;4959000;28;20494;-80
2022/01/22 13:09:08;;;;;;;6.85;1.80;;;6.90;99.90;;;;;;4958579;28;20043;-80
2022/01/22 13:11:43;;;;;;;8.65;1.70;;;7.00;99.90;;;;;;4958932;29;20071;-80
2022/01/22 13:14:09;;;;;;;9.10;2.50;;;7.00;99.90;;;;;;4943911;29;20045;-79
2022/01/22 13:16:34;;;;;;;4.22;1.60;;;7.00;99.90;;;;;;4954967;29;20122;-79
2022/01/22 13:19:00;;;;;;;6.95;1.70;;;7.00;99.90;;;;;;4956507;28;20049;-79
2022/01/22 13:21:29;;;;;;;8.43;1.88;;;7.00;99.90;;;;;;4955261;29;20051;-79
2022/01/22 13:24:05;;;;;;;12.52;2.42;;;7.10;99.90;;;;;;4957571;29;20113;-79
2022/01/22 13:26:58;;;;;;;8.00;1.67;;;7.00;99.90;;;;;;4955232;29;20039;-78
2022/01/22 13:29:38;;;;;;;10.63;1.50;;;7.00;99.90;;;;;;4938728;29;20039;-79
2022/01/22 13:32:09;;;;;;;4.20;1.55;;;7.10;99.90;;;;;;4956259;28;20039;-78
2022/01/22 13:35:06;;;;;;;7.90;2.35;;;7.00;99.90;;;;;;4962647;28;20034;-80
2022/01/22 13:49:27;;;;;;;6.30;1.55;;;7.10;99.90;;;;;;4974242;28;20126;-80
2022/01/22 13:52:04;;;;;;;4.82;1.70;;;7.00;99.90;;;;;;4964308;28;20401;-81
2022/01/22 13:54:32;;;;;;;8.55;2.00;;;7.00;99.90;;;;;;4978728;28;20043;-81
2022/01/22 13:57:04;;;;;;;6.47;2.60;;;7.00;99.90;;;;;;4969817;28;20039;-81
2022/01/22 13:59:35;;;;;;;7.38;1.75;;;7.00;99.90;;;;;;4959893;28;20062;-81
2022/01/22 14:04:47;;;;;;;8.23;1.98;;;7.00;99.90;;;;;;4959426;28;20133;-79
2022/01/22 14:07:30;;;;;;;9.40;1.58;;;7.00;99.90;;;;;;4955669;28;20050;-80
2022/01/22 14:10:13;;;;;;;8.88;1.40;;;7.00;99.90;;;;;;4955716;28;20039;-79
2022/01/22 14:12:43;;;;;;;;;;;6.90;99.90;;;;;;4955921;28;20075;-79
2022/01/22 14:15:30;;;;;;;6.13;1.25;;;6.90;99.90;;;;;;4937942;29;20008;-79
2022/01/22 14:18:15;;;;;;;3.78;1.48;;;6.90;99.90;;;;;;4953578;29;20490;-79
2022/01/22 14:21:06;;;;;;;5.00;1.50;;;6.90;99.90;;;;;;4956861;29;20043;-81
2022/01/22 14:23:33;;;;;;;3.20;1.42;;;6.90;99.90;;;;;;4960353;28;20043;-81
2022/01/22 14:26:02;;;;;;;5.50;2.08;;;6.90;99.90;;;;;;4960531;29;20498;-81
2022/01/22 14:28:47;;;;;;;6.70;1.38;;;6.90;99.90;;;;;;4942649;29;20055;-82
2022/01/22 14:31:29;;;;;;;6.20;1.20;;;6.90;99.90;;;;;;4960846;29;20051;-81
2022/01/22 14:34:12;;;;;;;4.60;1.77;;;6.90;99.90;;;;;;4957610;29;20054;-81
2022/01/22 14:36:39;;;;;;;3.75;1.38;;;6.80;99.90;;;;;;4959887;28;20179;-82
2022/01/22 14:44:57;;;;;;;7.30;1.85;;;6.70;99.90;;;;;;4959992;29;20055;-81
2022/01/22 14:47:29;;;;;;;4.82;1.30;;;6.70;99.90;;;;;;4959399;29;20055;-81
2022/01/22 14:50:07;;;;;;;6.07;1.23;;;6.70;99.90;;;;;;4962953;28;20499;-79
2022/01/22 14:52:33;;;;;;;2.85;1.10;;;6.70;99.90;;;;;;4960996;28;20046;-79
2022/01/22 14:55:01;;;;;;;5.72;1.17;;;6.70;99.90;;;;;;4963542;29;20039;-79
2022/01/22 14:57:33;;;;;;;4.18;0.90;;;6.70;99.90;;;;;;4963801;29;20039;-80
2022/01/22 15:00:05;;;;;;;;;;;6.70;99.90;;;;;;4962086;29;20055;-80